Time;durP1;ratioP1;P1;durP2;ratioP2;P2;SDS_P1;SDS_P2;PMS_P1;PMS_P2;Temp;Humidity;BMP_temperature;BMP_pressure;BME280_temperature;BME280_humidity;BME280_pressure;Samples;Min_cycle;Max_cycle;Signal;HPM_P1;HPM_P2
2021/11/01 00:02:04;;;;;;;18.85;15.90;;;10.10;99.90;;;;;;4987232;28;20632;-78
2021/11/01 00:04:31;;;;;;;17.88;15.40;;;10.20;99.90;;;;;;4975619;28;20224;-77
2021/11/01 00:07:01;;;;;;;18.52;16.50;;;10.20;99.90;;;;;;4990516;28;20224;-77
2021/11/01 00:09:29;;;;;;;19.73;16.55;;;10.20;99.90;;;;;;4987416;28;20222;-80
2021/11/01 00:11:57;;;;;;;17.38;15.52;;;10.20;99.90;;;;;;4992108;28;20230;-80
2021/11/01 00:14:26;;;;;;;20.35;16.50;;;10.20;99.90;;;;;;4963395;28;20236;-78
2021/11/01 00:16:57;;;;;;;18.70;16.35;;;10.20;99.90;;;;;;4982481;28;20229;-78
2021/11/01 00:19:28;;;;;;;19.38;16.20;;;10.20;99.90;;;;;;4978430;28;20307;-79
2021/11/01 00:21:55;;;;;;;18.98;16.05;;;10.20;99.90;;;;;;4976193;28;20229;-78
2021/11/01 00:24:22;;;;;;;16.85;15.05;;;10.10;99.90;;;;;;4986916;28;20239;-77
2021/11/01 00:26:49;;;;;;;18.92;16.38;;;10.10;99.90;;;;;;4985275;28;20229;-79
2021/11/01 00:29:16;;;;;;;20.05;16.73;;;10.10;99.90;;;;;;4987496;28;20216;-78
2021/11/01 00:31:45;;;;;;;20.45;16.92;;;10.00;99.90;;;;;;4987282;28;20229;-80
2021/11/01 00:34:12;;;;;;;17.92;16.08;;;10.00;99.90;;;;;;4990752;28;20237;-80
2021/11/01 00:36:39;;;;;;;16.80;14.85;;;10.00;99.90;;;;;;4990419;28;20565;-79
2021/11/01 00:39:06;;;;;;;17.23;15.43;;;10.00;99.90;;;;;;4991179;28;20229;-80
2021/11/01 00:41:33;;;;;;;17.27;15.38;;;10.00;99.90;;;;;;4983688;28;20586;-81
2021/11/01 00:44:00;;;;;;;16.40;14.73;;;10.10;99.90;;;;;;4988791;28;20220;-79
2021/11/01 00:46:28;;;;;;;17.60;15.57;;;10.10;99.90;;;;;;4981799;28;20220;-80
2021/11/01 00:48:56;;;;;;;18.02;16.15;;;10.10;99.90;;;;;;4983913;28;20806;-80
2021/11/01 00:51:23;;;;;;;17.92;16.02;;;10.10;99.90;;;;;;4969642;28;20230;-79
2021/11/01 00:53:50;;;;;;;18.42;16.08;;;10.10;99.90;;;;;;4968961;28;20711;-78
2021/11/01 00:56:18;;;;;;;17.52;15.63;;;10.10;99.90;;;;;;4987379;28;20235;-79
2021/11/01 00:58:45;;;;;;;19.33;17.33;;;10.10;99.90;;;;;;4983245;28;20599;-79
2021/11/01 01:01:16;;;;;;;20.23;17.38;;;10.10;99.90;;;;;;4976989;28;20228;-78
2021/11/01 01:03:43;;;;;;;18.73;16.75;;;10.00;99.90;;;;;;4982323;28;20216;-78
2021/11/01 01:06:13;;;;;;;18.70;15.88;;;10.00;99.90;;;;;;4990634;28;20222;-78
2021/11/01 01:08:40;;;;;;;18.17;16.27;;;10.00;99.90;;;;;;4986073;28;20240;-78
2021/11/01 01:11:08;;;;;;;17.30;15.13;;;10.00;99.90;;;;;;4983526;28;20749;-77
2021/11/01 01:13:37;;;;;;;17.77;15.80;;;10.00;99.90;;;;;;4985998;28;20304;-78
2021/11/01 01:16:10;;;;;;;14.75;13.23;;;10.10;99.90;;;;;;4986016;28;20569;-77
2021/11/01 01:18:38;;;;;;;16.83;15.13;;;10.10;99.90;;;;;;4986337;28;20675;-77
2021/11/01 01:23:48;;;;;;;22.83;18.30;;;10.10;99.90;;;;;;4988322;28;20232;-78
2021/11/01 01:26:16;;;;;;;23.17;19.70;;;10.20;99.90;;;;;;4973422;28;20229;-78
2021/11/01 01:28:44;;;;;;;19.73;16.52;;;10.20;99.90;;;;;;4980066;28;20235;-78
2021/11/01 01:31:11;;;;;;;18.92;16.85;;;10.20;99.90;;;;;;4982299;28;20221;-77
2021/11/01 01:33:39;;;;;;;20.50;17.83;;;10.20;99.90;;;;;;4992968;28;20304;-77
2021/11/01 01:36:07;;;;;;;21.27;16.67;;;10.20;99.90;;;;;;4990237;28;20232;-78
2021/11/01 01:38:35;;;;;;;24.17;19.75;;;10.20;99.90;;;;;;4977807;28;20240;-78
2021/11/01 01:41:13;;;;;;;19.02;16.95;;;10.20;99.90;;;;;;4977867;28;20736;-77
2021/11/01 01:43:44;;;;;;;20.48;17.60;;;10.10;99.90;;;;;;4977699;28;20228;-79
2021/11/01 01:46:12;;;;;;;19.63;16.65;;;10.10;99.90;;;;;;4972442;28;20287;-77
2021/11/01 01:48:40;;;;;;;19.23;17.13;;;10.10;99.90;;;;;;4993922;28;20229;-78
2021/11/01 01:51:07;;;;;;;19.95;17.85;;;10.00;99.90;;;;;;4986129;28;20225;-77
2021/11/01 01:53:34;;;;;;;19.83;16.02;;;10.00;99.90;;;;;;4992536;28;20224;-79
2021/11/01 01:56:02;;;;;;;17.55;15.75;;;9.90;99.90;;;;;;4990128;28;20240;-77
2021/11/01 01:58:50;;;;;;;18.23;15.30;;;9.90;99.90;;;;;;4987578;28;20247;-77
2021/11/01 02:01:17;;;;;;;17.52;15.65;;;10.00;99.90;;;;;;4977087;28;20570;-78
2021/11/01 02:03:48;;;;;;;17.48;15.55;;;10.00;99.90;;;;;;4976493;28;20225;-79
2021/11/01 02:06:26;;;;;;;16.55;14.15;;;10.00;99.90;;;;;;4975208;28;20304;-77
2021/11/01 02:09:01;;;;;;;19.35;17.15;;;10.10;99.90;;;;;;4977894;28;20283;-78
2021/11/01 02:11:34;;;;;;;20.17;17.15;;;10.10;99.90;;;;;;4977410;28;20232;-79
2021/11/01 02:14:07;;;;;;;20.08;16.85;;;10.10;99.90;;;;;;4974978;28;20221;-77
2021/11/01 02:16:35;;;;;;;18.30;15.95;;;10.10;99.90;;;;;;4978486;28;20244;-78
2021/11/01 02:19:08;;;;;;;18.65;16.10;;;10.00;99.90;;;;;;4972965;28;20216;-77
2021/11/01 02:21:45;;;;;;;20.55;17.52;;;10.10;99.90;;;;;;4971808;28;20520;-78
2021/11/01 02:24:18;;;;;;;17.83;15.88;;;10.10;99.90;;;;;;4975576;28;20229;-77
2021/11/01 02:26:48;;;;;;;18.25;16.23;;;10.10;99.90;;;;;;4975185;28;20979;-77
2021/11/01 02:29:16;;;;;;;18.55;16.55;;;10.10;99.90;;;;;;4970017;28;20862;-78
2021/11/01 02:31:44;;;;;;;21.90;18.30;;;10.10;99.90;;;;;;4965701;28;20228;-77
2021/11/01 02:34:11;;;;;;;19.80;17.67;;;10.10;99.90;;;;;;4973882;28;20724;-77
2021/11/01 02:36:39;;;;;;;19.15;17.05;;;10.10;99.90;;;;;;4967960;28;20720;-77
2021/11/01 02:39:06;;;;;;;18.67;16.50;;;10.00;99.90;;;;;;4977299;28;20236;-78
2021/11/01 02:41:34;;;;;;;17.08;15.27;;;10.00;99.90;;;;;;4971298;28;20728;-80
2021/11/01 02:44:05;;;;;;;17.83;15.90;;;10.00;99.90;;;;;;4965127;28;20228;-78
2021/11/01 02:46:33;;;;;;;18.05;16.15;;;10.10;99.90;;;;;;4974569;28;20712;-77
2021/11/01 02:49:00;;;;;;;17.95;16.05;;;10.10;99.90;;;;;;4966187;28;20593;-78
2021/11/01 02:51:29;;;;;;;19.88;16.27;;;10.10;99.90;;;;;;4969368;28;20220;-77
2021/11/01 02:53:58;;;;;;;20.58;16.17;;;10.10;99.90;;;;;;4979073;28;20240;-78
2021/11/01 02:56:27;;;;;;;18.15;16.05;;;10.10;99.90;;;;;;4970557;28;20233;-78
2021/11/01 02:58:54;;;;;;;20.05;17.20;;;10.00;99.90;;;;;;4972967;28;20240;-78
2021/11/01 03:01:24;;;;;;;18.63;16.63;;;9.90;99.90;;;;;;4971874;28;20252;-78
2021/11/01 03:03:51;;;;;;;18.15;15.80;;;9.80;99.90;;;;;;4982773;28;20807;-78
2021/11/01 03:06:21;;;;;;;20.55;17.70;;;9.80;99.90;;;;;;4965471;28;20376;-78
2021/11/01 03:08:49;;;;;;;17.73;15.88;;;9.80;99.90;;;;;;4972182;28;20712;-78
2021/11/01 03:11:17;;;;;;;18.17;16.25;;;9.70;99.90;;;;;;4976371;28;20313;-78
2021/11/01 03:13:45;;;;;;;18.88;16.98;;;9.60;99.90;;;;;;4979643;28;20228;-77
2021/11/01 03:16:13;;;;;;;17.67;15.77;;;9.60;99.90;;;;;;4976093;28;20233;-77
2021/11/01 03:18:53;;;;;;;17.70;15.60;;;9.60;99.90;;;;;;4971626;28;20527;-78
2021/11/01 03:21:22;;;;;;;17.50;15.43;;;9.60;99.90;;;;;;4958238;28;20221;-79
2021/11/01 03:23:51;;;;;;;23.50;19.58;;;9.70;99.90;;;;;;4977760;28;20225;-77
2021/11/01 03:26:21;;;;;;;18.92;16.60;;;9.60;99.90;;;;;;4977832;28;20236;-78
2021/11/01 03:28:51;;;;;;;19.80;16.92;;;9.70;99.90;;;;;;4981219;28;20777;-77
2021/11/01 03:31:22;;;;;;;18.80;16.80;;;9.70;99.90;;;;;;4981571;28;20251;-78
2021/11/01 03:33:52;;;;;;;20.70;17.70;;;9.70;99.90;;;;;;4976471;28;20228;-78
2021/11/01 03:36:20;;;;;;;20.27;17.60;;;9.70;99.90;;;;;;4996623;28;20293;-78
2021/11/01 03:38:48;;;;;;;18.05;16.25;;;9.70;99.90;;;;;;5008801;23;20224;-69
2021/11/01 03:41:16;;;;;;;20.17;15.52;;;9.70;99.90;;;;;;4995539;28;20220;-71
2021/11/01 03:43:52;;;;;;;22.13;17.95;;;9.70;99.90;;;;;;4997134;28;20800;-70
2021/11/01 03:46:25;;;;;;;20.05;16.92;;;9.80;99.90;;;;;;4998750;28;20238;-68
2021/11/01 03:48:55;;;;;;;17.52;15.65;;;9.70;99.90;;;;;;4997881;28;20227;-71
2021/11/01 03:54:21;;;;;;;21.10;18.45;;;9.80;99.90;;;;;;5086336;27;21180;-68
2021/11/01 03:56:52;;;;;;;20.73;17.70;;;9.80;99.90;;;;;;5082936;27;20222;-68
2021/11/01 03:59:19;;;;;;;20.90;17.27;;;9.80;99.90;;;;;;5073539;27;20323;-69
2021/11/01 04:01:47;;;;;;;19.10;16.55;;;9.80;99.90;;;;;;5055052;28;20210;-69
2021/11/01 04:04:15;;;;;;;21.38;16.60;;;9.90;99.90;;;;;;5063125;28;20226;-69
2021/11/01 04:06:43;;;;;;;20.75;18.55;;;9.90;99.90;;;;;;5076174;28;20308;-68
2021/11/01 04:09:12;;;;;;;22.55;17.75;;;9.90;99.90;;;;;;5074266;28;20225;-69
2021/11/01 04:11:43;;;;;;;19.02;16.98;;;9.90;99.90;;;;;;5078103;28;20217;-70
2021/11/01 04:14:16;;;;;;;19.67;17.20;;;9.90;99.90;;;;;;5068601;28;20249;-70
2021/11/01 04:16:46;;;;;;;19.02;16.08;;;9.90;99.90;;;;;;5067239;28;20564;-69
2021/11/01 04:21:58;;;;;;;18.95;16.95;;;10.00;99.90;;;;;;5059210;27;20222;-71
2021/11/01 04:24:29;;;;;;;20.27;17.60;;;10.00;99.90;;;;;;5054010;28;20305;-69
2021/11/01 04:26:58;;;;;;;21.35;18.52;;;9.90;99.90;;;;;;5050756;28;20233;-69
2021/11/01 04:29:29;;;;;;;20.58;17.77;;;9.90;99.90;;;;;;5053540;28;20229;-67
2021/11/01 04:32:04;;;;;;;21.02;18.73;;;9.80;99.90;;;;;;5068587;28;20746;-68
2021/11/01 04:34:33;;;;;;;18.35;16.38;;;9.70;99.90;;;;;;5065002;27;20293;-71
2021/11/01 04:37:01;;;;;;;18.90;16.90;;;9.70;99.90;;;;;;5055214;28;20744;-67
2021/11/01 04:39:36;;;;;;;16.60;14.82;;;9.70;99.90;;;;;;5068284;28;20260;-66
2021/11/01 04:52:53;;;;;;;18.58;15.90;;;9.80;99.90;;;;;;5070343;28;20218;-67
2021/11/01 04:53:20;;;;;;;17.80;15.63;;;9.90;99.90;;;;;;5070693;28;20285;-68
2021/11/01 04:55:47;;;;;;;20.83;17.70;;;9.90;99.90;;;;;;5076306;27;20217;-68
2021/11/01 04:58:15;;;;;;;20.90;17.17;;;9.90;99.90;;;;;;5076418;27;20233;-68
2021/11/01 05:00:45;;;;;;;21.77;18.50;;;9.90;99.90;;;;;;5075499;27;20213;-69
2021/11/01 05:03:17;;;;;;;21.35;18.25;;;9.90;99.90;;;;;;5055304;28;20228;-68
2021/11/01 05:05:45;;;;;;;22.42;18.65;;;9.90;99.90;;;;;;5046680;28;20227;-68
2021/11/01 05:08:12;;;;;;;21.20;18.08;;;9.80;99.90;;;;;;5056430;28;20372;-68
2021/11/01 05:10:41;;;;;;;18.83;16.60;;;9.90;99.90;;;;;;5063770;28;20672;-69
2021/11/01 05:13:12;;;;;;;20.08;17.83;;;9.90;99.90;;;;;;5056269;28;20882;-68
2021/11/01 05:15:46;;;;;;;20.10;17.90;;;9.90;99.90;;;;;;5057470;28;20221;-70
2021/11/01 05:18:22;;;;;;;20.40;17.85;;;9.90;99.90;;;;;;5061817;28;20297;-68
2021/11/01 05:20:54;;;;;;;23.45;18.88;;;9.90;99.90;;;;;;5040144;28;20679;-68
2021/11/01 05:23:29;;;;;;;22.85;19.55;;;9.90;99.90;;;;;;5055940;28;20221;-67
2021/11/01 05:25:59;;;;;;;22.15;19.10;;;9.80;99.90;;;;;;5062578;28;20217;-67
2021/11/01 05:28:39;;;;;;;22.33;18.60;;;9.80;99.90;;;;;;5058647;28;20325;-67
2021/11/01 05:31:13;;;;;;;20.48;18.27;;;9.80;99.90;;;;;;5060783;28;20229;-68
2021/11/01 05:36:24;;;;;;;20.48;17.75;;;9.80;99.90;;;;;;5061136;28;20214;-68
2021/11/01 05:38:51;;;;;;;19.15;16.38;;;9.80;99.90;;;;;;5063159;28;20222;-68
2021/11/01 05:41:19;;;;;;;20.00;17.17;;;9.80;99.90;;;;;;5058629;28;20226;-67
2021/11/01 05:43:47;;;;;;;22.13;17.85;;;9.80;99.90;;;;;;5060779;28;20965;-68
2021/11/01 05:46:16;;;;;;;20.38;17.65;;;9.80;99.90;;;;;;5052073;28;20473;-68
2021/11/01 05:48:49;;;;;;;21.08;17.73;;;9.80;99.90;;;;;;5060072;28;20230;-67
2021/11/01 05:51:17;;;;;;;20.35;17.83;;;9.80;99.90;;;;;;5038487;28;20250;-69
2021/11/01 05:53:46;;;;;;;21.55;18.25;;;9.80;99.90;;;;;;5043942;28;20231;-69
2021/11/01 05:56:25;;;;;;;20.55;17.98;;;9.80;99.90;;;;;;5062528;28;20245;-69
2021/11/01 05:59:03;;;;;;;18.88;16.73;;;9.80;99.90;;;;;;5060658;28;20830;-68
2021/11/01 06:02:13;;;;;;;22.98;19.88;;;9.80;99.90;;;;;;5062901;28;20257;-68
2021/11/01 06:04:51;;;;;;;24.20;19.60;;;9.70;99.90;;;;;;5037740;28;21731;-70
2021/11/01 06:07:26;;;;;;;21.35;17.98;;;9.70;99.90;;;;;;5045742;28;20219;-68
2021/11/01 06:10:02;;;;;;;18.83;15.40;;;9.70;99.90;;;;;;5038981;28;20241;-67
2021/11/01 06:15:14;;;;;;;18.70;15.88;;;9.80;99.90;;;;;;5033445;28;20627;-68
2021/11/01 06:17:43;;;;;;;16.83;15.13;;;9.90;99.90;;;;;;5053979;28;20276;-68
2021/11/01 06:20:13;;;;;;;19.33;16.90;;;9.90;99.90;;;;;;5039497;28;20302;-67
2021/11/01 06:22:41;;;;;;;19.80;17.20;;;10.00;99.90;;;;;;5048069;28;20598;-67
2021/11/01 06:25:10;;;;;;;21.33;18.15;;;10.00;99.90;;;;;;5058953;28;20235;-68
2021/11/01 06:27:38;;;;;;;20.10;17.30;;;10.00;99.90;;;;;;5034501;28;20320;-68
2021/11/01 06:30:20;;;;;;;19.92;16.75;;;10.00;99.90;;;;;;5035029;28;20233;-68
2021/11/01 06:33:00;;;;;;;18.73;16.65;;;10.00;99.90;;;;;;5034106;28;20211;-68
2021/11/01 06:41:29;;;;;;;22.08;19.02;;;10.10;99.90;;;;;;4993377;28;20295;-69
2021/11/01 06:57:46;;;;;;;18.48;16.42;;;10.10;99.90;;;;;;5021255;28;20219;-69
2021/11/01 07:14:16;;;;;;;18.55;16.58;;;10.30;99.90;;;;;;5053067;28;20276;-69
2021/11/01 07:16:47;;;;;;;19.27;16.48;;;10.30;99.90;;;;;;5034681;28;20219;-69
2021/11/01 07:19:23;;;;;;;20.48;17.75;;;10.30;99.90;;;;;;5040138;28;20223;-68
2021/11/01 07:22:20;;;;;;;21.30;18.95;;;10.30;99.90;;;;;;5031112;28;20214;-69
2021/11/01 07:30:48;;;;;;;20.65;18.45;;;10.30;99.90;;;;;;5039154;28;20265;-69
2021/11/01 08:36:47;;;;;;;23.25;20.38;;;10.50;99.90;;;;;;5028281;28;20226;-69
2021/11/01 08:45:07;;;;;;;23.70;21.13;;;10.60;99.90;;;;;;5050547;28;20757;-68
2021/11/01 09:01:53;;;;;;;23.73;20.48;;;10.50;99.90;;;;;;5036685;28;20256;-68
2021/11/01 09:04:36;;;;;;;23.90;21.30;;;10.40;99.90;;;;;;5056569;28;20214;-69
2021/11/01 09:07:24;;;;;;;24.00;20.63;;;10.40;99.90;;;;;;5055923;28;20218;-68
2021/11/01 09:21:30;;;;;;;20.02;17.88;;;10.60;99.90;;;;;;5031909;28;20223;-69
2021/11/01 09:26:54;;;;;;;24.17;20.55;;;10.50;99.90;;;;;;4977364;28;20212;-69
2021/11/01 09:29:29;;;;;;;21.20;19.02;;;10.50;99.90;;;;;;5022830;28;20718;-68
2021/11/01 09:37:42;;;;;;;25.25;21.05;;;10.40;99.90;;;;;;5047772;28;20292;-69
2021/11/01 09:42:56;;;;;;;22.58;20.17;;;10.30;99.90;;;;;;5005402;28;20219;-90
2021/11/01 09:45:29;;;;;;;24.55;21.30;;;10.10;99.90;;;;;;4995577;28;20228;-89
2021/11/01 09:47:56;;;;;;;23.65;21.10;;;10.00;99.90;;;;;;5001054;28;20244;-88
2021/11/01 09:50:25;;;;;;;24.63;20.67;;;9.90;99.90;;;;;;4994577;28;20594;-90
2021/11/01 09:52:58;;;;;;;22.95;19.95;;;9.90;99.90;;;;;;5003083;28;20595;-88
2021/11/01 09:55:46;;;;;;;20.27;18.05;;;9.90;99.90;;;;;;5024277;28;20258;-90
2021/11/01 10:00:58;;;;;;;23.95;19.52;;;9.80;99.90;;;;;;5005181;28;20231;-89
2021/11/01 10:03:32;;;;;;;22.95;20.30;;;9.70;99.90;;;;;;5010687;28;20251;-87
2021/11/01 10:06:02;;;;;;;21.73;18.58;;;9.70;99.90;;;;;;5001721;28;20327;-90
2021/11/01 10:08:30;;;;;;;19.85;17.63;;;9.70;99.90;;;;;;5005096;28;20216;-90
2021/11/01 10:10:58;;;;;;;22.63;18.15;;;9.80;99.90;;;;;;5006356;28;20229;-90
2021/11/01 10:13:27;;;;;;;20.33;18.23;;;9.80;99.90;;;;;;5008555;28;20220;-90
2021/11/01 10:18:46;;;;;;;22.95;20.48;;;10.00;99.90;;;;;;5006867;28;20218;-89
2021/11/01 10:21:16;;;;;;;24.17;20.30;;;10.00;99.90;;;;;;5009199;28;20232;-90
2021/11/01 10:23:51;;;;;;;21.63;19.15;;;10.00;99.90;;;;;;5004175;28;20228;-92
2021/11/01 10:26:21;;;;;;;19.67;17.52;;;10.00;99.90;;;;;;5003602;28;20330;-91
2021/11/01 10:28:50;;;;;;;18.27;16.02;;;10.10;99.90;;;;;;4991536;28;20240;-89
2021/11/01 10:31:20;;;;;;;19.80;17.75;;;10.10;99.90;;;;;;4973600;28;20239;-88
2021/11/01 10:33:49;;;;;;;24.35;20.33;;;10.20;99.90;;;;;;4980812;28;20230;-90
2021/11/01 10:36:29;;;;;;;24.08;20.60;;;10.20;99.90;;;;;;5003527;28;20226;-89
2021/11/01 10:38:59;;;;;;;22.58;19.92;;;10.30;99.90;;;;;;5005116;28;20279;-91
2021/11/01 10:41:32;;;;;;;25.02;21.52;;;10.30;99.90;;;;;;5003259;28;20284;-91
2021/11/01 10:44:10;;;;;;;25.02;21.63;;;10.30;99.90;;;;;;5003105;28;20230;-91
2021/11/01 11:11:41;;;;;;;27.30;22.10;;;10.40;99.90;;;;;;5008980;28;20935;-91
2021/11/01 11:14:19;;;;;;;28.73;24.90;;;10.40;99.90;;;;;;5008613;28;20286;-90
2021/11/01 11:17:12;;;;;;;35.92;29.75;;;10.40;99.90;;;;;;4999748;28;20224;-90
2021/11/01 11:19:53;;;;;;;37.90;31.48;;;10.30;99.90;;;;;;4988108;28;20217;-91
2021/11/01 11:31:15;;;;;;;30.20;25.45;;;10.00;99.90;;;;;;4963201;28;20228;-90
2021/11/01 11:33:58;;;;;;;26.50;23.35;;;10.00;99.90;;;;;;4985303;28;20680;-91
2021/11/01 11:47:45;;;;;;;22.92;19.60;;;10.10;99.90;;;;;;4979830;28;20232;-91
2021/11/01 11:50:16;;;;;;;22.23;19.70;;;10.10;99.90;;;;;;5005847;28;20710;-91
2021/11/01 11:52:44;;;;;;;22.27;19.98;;;10.30;99.90;;;;;;4986024;28;20224;-87
2021/11/01 11:55:17;;;;;;;22.38;19.77;;;10.30;99.90;;;;;;5003136;28;20228;-90
2021/11/01 11:57:54;;;;;;;23.40;20.05;;;10.30;99.90;;;;;;5002378;28;20227;-91
2021/11/01 12:00:21;;;;;;;27.48;23.90;;;10.30;99.90;;;;;;4982550;28;20231;-91
2021/11/01 12:02:50;;;;;;;25.02;20.70;;;10.30;99.90;;;;;;4995343;28;20247;-90
2021/11/01 12:05:23;;;;;;;113.20;23.52;;;10.30;99.90;;;;;;5005007;28;20227;-90
2021/11/01 12:08:02;;;;;;;21.70;19.50;;;10.20;99.90;;;;;;4984029;28;20247;-91
2021/11/01 12:11:09;;;;;;;21.15;17.92;;;10.10;99.90;;;;;;4982641;28;20226;-91
2021/11/01 12:19:11;;;;;;;23.23;20.42;;;10.00;99.90;;;;;;5006428;28;20258;-89
2021/11/01 12:21:40;;;;;;;33.63;18.95;;;10.00;99.90;;;;;;4979059;28;20224;-89
2021/11/01 12:24:09;;;;;;;20.80;18.65;;;10.10;99.90;;;;;;4984978;28;20241;-89
2021/11/01 12:26:38;;;;;;;20.40;18.17;;;10.00;99.90;;;;;;4984090;28;20259;-91
2021/11/01 12:29:11;;;;;;;18.88;16.90;;;10.00;99.90;;;;;;4984056;28;20320;-88
2021/11/01 12:31:39;;;;;;;21.00;16.55;;;10.00;99.90;;;;;;5001997;28;20215;-92
2021/11/01 12:34:12;;;;;;;20.77;16.58;;;10.00;99.90;;;;;;5009607;28;20232;-91
2021/11/01 12:36:46;;;;;;;21.08;16.85;;;10.00;99.90;;;;;;5001856;28;20235;-91
2021/11/01 12:39:20;;;;;;;19.73;17.67;;;10.00;99.90;;;;;;4999407;28;20222;-90
2021/11/01 12:47:58;;;;;;;22.13;19.02;;;9.90;99.90;;;;;;5003111;28;20230;-89
2021/11/01 12:58:35;;;;;;;23.40;19.60;;;9.70;99.90;;;;;;5008240;28;20281;-91
2021/11/01 13:01:09;;;;;;;21.02;18.58;;;9.70;99.90;;;;;;4994450;28;20304;-89
2021/11/01 13:03:37;;;;;;;28.10;22.80;;;9.80;99.90;;;;;;4991711;28;20311;-91
2021/11/01 13:06:07;;;;;;;22.25;19.20;;;9.80;99.90;;;;;;4987132;28;20237;-89
2021/11/01 13:08:42;;;;;;;20.50;17.58;;;9.80;99.90;;;;;;4990419;28;20240;-88
2021/11/01 13:11:26;;;;;;;17.88;15.43;;;9.80;99.90;;;;;;5001534;28;20238;-89
2021/11/01 13:19:25;;;;;;;18.73;15.48;;;9.90;99.90;;;;;;4978037;28;20295;-88
2021/11/01 13:21:57;;;;;;;17.17;15.40;;;9.90;99.90;;;;;;4983486;28;20312;-91
2021/11/01 13:24:37;;;;;;;14.60;13.02;;;9.90;99.90;;;;;;4984138;28;20217;-86
2021/11/01 13:27:31;;;;;;;14.63;13.23;;;9.80;99.90;;;;;;4984676;28;20293;-91
2021/11/01 13:35:45;;;;;;;15.23;13.73;;;9.80;99.90;;;;;;5003415;28;20251;-88
2021/11/01 13:38:13;;;;;;;15.10;13.60;;;9.80;99.90;;;;;;5004988;28;20275;-88
2021/11/01 13:40:44;;;;;;;13.93;12.18;;;9.70;99.90;;;;;;4979144;28;20232;-88
2021/11/01 13:43:11;;;;;;;12.57;11.35;;;9.70;99.90;;;;;;5007942;28;20239;-88
2021/11/01 13:45:40;;;;;;;14.15;12.68;;;9.60;99.90;;;;;;4990529;28;20219;-88
2021/11/01 13:48:09;;;;;;;12.57;10.20;;;9.60;99.90;;;;;;4988047;28;20224;-88
2021/11/01 13:50:38;;;;;;;12.32;11.13;;;9.50;99.90;;;;;;4981658;28;20227;-87
2021/11/01 13:53:10;;;;;;;12.25;11.02;;;9.50;99.90;;;;;;4994566;28;20231;-87
2021/11/01 13:55:47;;;;;;;11.38;10.07;;;9.50;99.90;;;;;;4991861;28;20260;-86
2021/11/01 13:58:32;;;;;;;10.35;9.40;;;9.50;99.90;;;;;;4995397;28;20216;-89
2021/11/01 14:01:24;;;;;;;10.00;9.10;;;9.50;99.90;;;;;;5009361;28;20227;-88
2021/11/01 14:14:56;;;;;;;14.00;11.02;;;9.60;99.90;;;;;;5004974;28;20216;-88
2021/11/01 14:17:45;;;;;;;14.07;12.70;;;9.60;99.90;;;;;;5009492;28;20248;-87
2021/11/01 14:20:31;;;;;;;14.68;13.23;;;9.50;99.90;;;;;;5000225;28;20235;-88
2021/11/01 14:28:40;;;;;;;14.77;13.18;;;9.50;99.90;;;;;;5002877;28;20321;-90
2021/11/01 14:31:34;;;;;;;11.70;10.60;;;9.60;99.90;;;;;;5007808;28;20224;-91
2021/11/01 14:34:23;;;;;;;11.98;10.88;;;9.70;99.90;;;;;;5009364;28;20227;-91
2021/11/01 14:54:52;;;;;;;12.65;11.35;;;9.60;99.90;;;;;;5014616;28;20217;-91
2021/11/01 15:02:32;;;;;;;20.65;17.45;;;9.40;99.90;;;;;;4986331;28;20251;-90
2021/11/01 15:13:45;;;;;;;19.20;17.13;;;9.50;99.90;;;;;;4993847;28;20232;-90
2021/11/01 15:21:52;;;;;;;16.02;14.35;;;9.80;99.90;;;;;;5000930;28;20216;-91
2021/11/01 15:24:31;;;;;;;12.95;11.68;;;9.70;99.90;;;;;;5008333;28;20244;-91
2021/11/01 15:27:25;;;;;;;11.82;10.73;;;9.70;99.90;;;;;;5007022;28;20232;-91
2021/11/01 16:19:57;;;;;;;8.90;8.10;;;9.30;99.90;;;;;;5114783;27;21094;-76
2021/11/01 16:22:25;;;;;;;8.02;7.32;;;9.30;99.90;;;;;;5102115;27;20223;-76
2021/11/01 16:24:52;;;;;;;8.18;7.47;;;9.30;99.90;;;;;;5134530;27;20215;-74
2021/11/01 16:27:21;;;;;;;7.40;6.80;;;9.30;99.90;;;;;;5143502;27;20219;-75
2021/11/01 16:29:54;;;;;;;8.48;7.75;;;9.30;99.90;;;;;;5136587;27;20231;-76
2021/11/01 16:32:25;;;;;;;8.07;7.47;;;9.40;99.90;;;;;;5129777;27;20239;-74
2021/11/01 16:34:55;;;;;;;8.82;8.02;;;9.40;99.90;;;;;;5130193;27;20867;-77
2021/11/01 16:37:29;;;;;;;7.45;6.75;;;9.30;99.90;;;;;;5137975;27;20272;-77
2021/11/01 16:40:01;;;;;;;8.20;7.50;;;9.30;99.90;;;;;;5133209;27;20227;-77
2021/11/01 16:42:32;;;;;;;8.85;7.97;;;9.20;99.90;;;;;;5129803;27;20227;-77
2021/11/01 16:45:04;;;;;;;9.52;8.63;;;9.30;99.90;;;;;;5130458;27;20463;-75
2021/11/01 16:47:32;;;;;;;9.70;8.90;;;9.30;99.90;;;;;;5129223;27;20276;-76
2021/11/01 16:50:00;;;;;;;7.95;7.35;;;9.30;99.90;;;;;;5131484;27;20231;-76
2021/11/01 16:52:29;;;;;;;8.50;7.80;;;9.30;99.90;;;;;;5133055;27;20222;-76
2021/11/01 16:54:57;;;;;;;7.93;7.22;;;9.30;99.90;;;;;;5129780;27;20641;-76
2021/11/01 16:57:29;;;;;;;8.77;7.97;;;9.30;99.90;;;;;;5131848;27;20244;-74
2021/11/01 17:00:07;;;;;;;9.07;8.27;;;9.40;99.90;;;;;;5133820;27;20328;-74
2021/11/01 17:02:41;;;;;;;9.98;9.07;;;9.40;99.90;;;;;;5131593;27;20218;-75
2021/11/01 17:05:20;;;;;;;9.60;8.70;;;9.30;99.90;;;;;;5133794;27;20227;-76
2021/11/01 17:21:41;;;;;;;9.23;8.30;;;9.40;99.90;;;;;;5136975;27;20218;-76
2021/11/01 17:24:16;;;;;;;9.20;8.40;;;9.40;99.90;;;;;;5138143;27;20716;-75
2021/11/01 17:35:37;;;;;;;7.93;7.22;;;9.40;99.90;;;;;;5079613;28;20243;-75
2021/11/01 18:37:28;;;;;;;14.57;13.07;;;8.90;99.90;;;;;;5111532;27;20664;-76
2021/11/01 18:46:00;;;;;;;12.27;11.07;;;8.80;99.90;;;;;;5119851;27;20212;-74
2021/11/01 18:51:28;;;;;;;12.43;10.85;;;8.70;99.90;;;;;;5116584;27;20240;-74
2021/11/01 18:54:08;;;;;;;12.18;10.90;;;8.70;99.90;;;;;;5120501;27;20228;-76
2021/11/01 18:56:37;;;;;;;9.80;8.80;;;8.60;99.90;;;;;;5118254;27;20239;-76
2021/11/01 18:59:07;;;;;;;8.20;7.40;;;8.60;99.90;;;;;;5118350;27;20284;-75
2021/11/01 19:01:37;;;;;;;7.80;7.10;;;8.50;99.90;;;;;;5122232;27;20234;-74
2021/11/01 19:04:12;;;;;;;7.22;6.63;;;8.50;99.90;;;;;;5118097;27;20276;-76
2021/11/01 19:06:47;;;;;;;6.28;5.78;;;8.50;99.90;;;;;;5125359;27;20221;-76
2021/11/01 19:09:23;;;;;;;6.20;5.63;;;8.40;99.90;;;;;;5116721;27;20214;-75
2021/11/01 20:05:03;;;;;;;2.70;2.50;;;7.60;99.90;;;;;;5119921;27;20224;-75
2021/11/01 20:13:15;;;;;;;3.08;2.85;;;7.40;99.90;;;;;;5081659;27;20517;-76
2021/11/01 21:25:49;;;;;;;2.30;2.10;;;7.10;99.90;;;;;;5124290;27;20227;-75
2021/11/01 21:28:16;;;;;;;2.80;2.70;;;7.10;99.90;;;;;;5122234;27;20216;-75
2021/11/01 21:30:43;;;;;;;2.47;2.28;;;7.10;99.90;;;;;;5125166;27;20267;-75
2021/11/01 21:33:16;;;;;;;2.00;1.90;;;7.00;99.90;;;;;;5129820;27;20215;-75
2021/11/01 21:35:46;;;;;;;2.30;2.20;;;7.00;99.90;;;;;;5129183;27;20220;-75
2021/11/01 21:38:13;;;;;;;2.50;2.40;;;7.00;99.90;;;;;;5124721;27;20219;-75
2021/11/01 21:40:43;;;;;;;2.63;2.47;;;7.00;99.90;;;;;;5078725;22;20637;-77
2021/11/01 21:43:10;;;;;;;2.58;2.38;;;7.00;99.90;;;;;;5050490;28;20680;-77
2021/11/01 21:45:37;;;;;;;1.80;1.70;;;7.00;99.90;;;;;;5059836;28;20695;-77
2021/11/01 21:48:05;;;;;;;1.73;1.70;;;7.00;99.90;;;;;;5060372;28;20230;-77
2021/11/01 21:50:35;;;;;;;2.30;2.10;;;7.00;99.90;;;;;;5064913;28;20225;-78
2021/11/01 21:53:04;;;;;;;1.92;1.83;;;7.10;99.90;;;;;;5048159;28;20222;-77
2021/11/01 21:55:31;;;;;;;1.90;1.80;;;7.10;99.90;;;;;;5041750;28;20589;-78
2021/11/01 21:58:01;;;;;;;1.83;1.73;;;7.10;99.90;;;;;;5042740;28;20218;-78
2021/11/01 22:17:24;;;;;;;2.13;2.03;;;7.20;99.90;;;;;;5040733;28;20229;-78
2021/11/01 22:19:57;;;;;;;1.90;1.80;;;7.10;99.90;;;;;;5047834;28;20578;-78
2021/11/01 22:22:47;;;;;;;2.10;1.90;;;7.10;99.90;;;;;;5038357;28;20233;-78
2021/11/01 22:25:19;;;;;;;2.05;1.95;;;7.00;99.90;;;;;;5039520;28;20677;-78
2021/11/01 22:33:31;;;;;;;1.95;1.85;;;6.80;99.90;;;;;;5044668;28;20268;-78
2021/11/01 22:38:58;;;;;;;2.08;1.98;;;6.80;99.90;;;;;;5041390;28;20263;-77
2021/11/01 22:41:33;;;;;;;1.65;1.65;;;6.80;99.90;;;;;;5044222;28;20774;-77
2021/11/01 22:46:59;;;;;;;1.88;1.77;;;6.90;99.90;;;;;;5039837;28;20707;-78
2021/11/01 22:57:41;;;;;;;1.67;1.67;;;6.80;99.90;;;;;;5038282;28;20229;-78
2021/11/01 23:00:18;;;;;;;1.90;1.80;;;6.80;99.90;;;;;;5043024;28;20612;-77
2021/11/01 23:02:47;;;;;;;2.03;1.92;;;6.70;99.90;;;;;;5040530;28;20230;-77
2021/11/01 23:05:28;;;;;;;1.90;1.80;;;6.80;99.90;;;;;;5044133;28;20218;-77
2021/11/01 23:32:37;;;;;;;1.90;1.80;;;6.60;99.90;;;;;;5038664;28;20222;-78
2021/11/01 23:35:05;;;;;;;1.75;1.65;;;6.60;99.90;;;;;;5036203;28;20591;-76